Time;durP1;ratioP1;P1;durP2;ratioP2;P2;SDS_P1;SDS_P2;PMS_P1;PMS_P2;Temp;Humidity;BMP_temperature;BMP_pressure;BME280_temperature;BME280_humidity;BME280_pressure;Samples;Min_cycle;Max_cycle;Signal;HPM_P1;HPM_P2
2023/11/25 00:00:21;;;;;;;25.50;11.18;;;;;;;-5.86;76.07;95886.16;5012369;28;20129;-59
2023/11/25 00:02:48;;;;;;;22.20;11.57;;;;;;;-5.91;76.46;95888.59;5026475;28;20046;-59
2023/11/25 00:05:14;;;;;;;23.88;12.13;;;;;;;-5.92;76.19;95890.41;5010606;28;20042;-57
2023/11/25 00:07:40;;;;;;;25.80;12.88;;;;;;;-5.91;76.56;95888.59;5010869;28;20049;-59
2023/11/25 00:10:07;;;;;;;27.30;12.75;;;;;;;-5.91;76.87;95889.41;5011915;28;20435;-59
2023/11/25 00:12:34;;;;;;;27.15;13.50;;;;;;;-5.97;76.96;95880.78;5010838;28;20053;-59
2023/11/25 00:15:00;;;;;;;26.20;13.32;;;;;;;-6.04;76.34;95877.50;5010895;28;20041;-60
2023/11/25 00:17:28;;;;;;;23.25;11.73;;;;;;;-5.95;76.21;95889.06;5011933;28;20402;-59
2023/11/25 00:19:56;;;;;;;27.40;13.85;;;;;;;-5.99;76.44;95898.25;5011886;28;20049;-59
2023/11/25 00:22:21;;;;;;;32.38;15.05;;;;;;;-5.93;76.74;95889.63;5010452;28;20046;-59
2023/11/25 00:24:48;;;;;;;28.98;13.95;;;;;;;-5.89;76.92;95891.75;5012114;28;20254;-59
2023/11/25 00:27:14;;;;;;;25.52;13.20;;;;;;;-5.91;76.37;95886.03;5008642;28;20044;-58
2023/11/25 00:29:41;;;;;;;27.17;13.13;;;;;;;-6.00;76.25;95880.41;5011616;28;20044;-61
2023/11/25 00:32:07;;;;;;;32.30;16.02;;;;;;;-6.07;76.93;95888.25;4977775;28;20053;-58
2023/11/25 00:34:33;;;;;;;28.73;12.82;;;;;;;-6.13;77.51;95891.69;4993406;28;20403;-59
2023/11/25 00:36:59;;;;;;;29.75;13.93;;;;;;;-6.10;76.84;95899.00;5010418;28;20049;-59
2023/11/25 00:39:27;;;;;;;27.38;14.70;;;;;;;-6.12;77.32;95895.06;5011831;28;20034;-59
2023/11/25 00:41:53;;;;;;;32.65;13.15;;;;;;;-6.12;76.92;95905.38;5009138;28;20042;-60
2023/11/25 00:44:19;;;;;;;31.65;14.85;;;;;;;-6.07;77.43;95897.78;5011396;28;20530;-60
2023/11/25 00:46:45;;;;;;;33.97;14.82;;;;;;;-6.14;76.96;95908.19;5011449;28;20069;-60
2023/11/25 00:49:12;;;;;;;26.58;13.10;;;;;;;-6.15;77.13;95898.84;5011159;28;20140;-60
2023/11/25 00:51:37;;;;;;;34.55;15.13;;;;;;;-6.09;77.50;95897.97;5010557;28;20038;-59
2023/11/25 00:54:04;;;;;;;32.45;15.70;;;;;;;-6.10;77.26;95905.94;5010270;28;20120;-59
2023/11/25 00:56:30;;;;;;;29.08;15.23;;;;;;;-6.02;77.80;95901.28;5011522;28;20490;-60
2023/11/25 00:58:57;;;;;;;27.42;13.85;;;;;;;-5.98;76.65;95906.78;5011342;28;20046;-59
2023/11/25 01:01:23;;;;;;;29.02;15.80;;;;;;;-6.07;76.86;95906.28;5010674;28;20038;-60
2023/11/25 01:03:48;;;;;;;32.35;14.75;;;;;;;-5.96;77.36;95902.19;5009729;28;20054;-59
2023/11/25 01:06:14;;;;;;;26.38;14.60;;;;;;;-5.91;76.63;95910.03;5012485;28;20458;-60
2023/11/25 01:08:40;;;;;;;25.40;12.93;;;;;;;-5.95;75.77;95909.69;5015619;28;20042;-60
2023/11/25 01:11:06;;;;;;;25.38;12.90;;;;;;;-5.92;76.13;95926.50;5015195;28;20073;-60
2023/11/25 01:13:32;;;;;;;28.42;14.13;;;;;;;-5.88;76.09;95927.66;5014079;28;20491;-60
2023/11/25 01:16:00;;;;;;;29.73;14.52;;;;;;;-5.87;76.01;95925.88;5013995;28;20040;-59
2023/11/25 01:18:26;;;;;;;24.05;12.63;;;;;;;-5.94;75.61;95931.16;5015381;28;20096;-59
2023/11/25 01:20:56;;;;;;;24.25;13.43;;;;;;;-5.97;76.19;95929.78;5013866;28;20041;-60
2023/11/25 01:23:23;;;;;;;27.17;12.15;;;;;;;-6.00;75.86;95927.63;5013906;28;20092;-59
2023/11/25 01:25:49;;;;;;;21.98;12.40;;;;;;;-6.07;75.56;95937.22;5013752;28;20058;-60
2023/11/25 01:28:14;;;;;;;22.45;11.63;;;;;;;-6.15;75.72;95924.63;5014633;28;20140;-59
2023/11/25 01:30:40;;;;;;;21.60;11.00;;;;;;;-6.09;75.86;95943.59;5015229;28;20045;-61
2023/11/25 01:33:06;;;;;;;32.05;13.77;;;;;;;-6.12;75.50;95938.88;5014985;28;20049;-59
2023/11/25 01:35:33;;;;;;;24.85;12.93;;;;;;;-6.13;75.36;95952.78;5014541;28;20091;-60
2023/11/25 01:37:59;;;;;;;23.58;12.18;;;;;;;-6.21;75.81;95946.91;5012570;28;20089;-59
2023/11/25 01:40:25;;;;;;;25.92;13.80;;;;;;;-6.11;76.12;95959.31;5013330;28;20120;-59
2023/11/25 01:42:56;;;;;;;20.77;11.57;;;;;;;-6.11;75.37;95950.78;5014443;28;20128;-59
2023/11/25 01:45:22;;;;;;;23.13;12.63;;;;;;;-6.11;75.99;95959.31;5029921;28;20103;-58
2023/11/25 01:47:48;;;;;;;27.10;14.05;;;;;;;-6.04;76.06;95956.63;4995930;28;20061;-59
2023/11/25 01:50:14;;;;;;;26.58;10.90;;;;;;;-6.08;75.41;95950.34;5013172;28;20037;-60
2023/11/25 01:52:41;;;;;;;21.70;11.48;;;;;;;-6.04;75.97;95959.22;5012942;28;20046;-60
2023/11/25 01:55:08;;;;;;;23.40;12.35;;;;;;;-6.02;75.75;95964.97;5014321;28;20128;-59
2023/11/25 01:57:34;;;;;;;21.73;11.35;;;;;;;-6.04;75.72;95966.97;5013872;28;20372;-60
2023/11/25 02:00:07;;;;;;;26.63;13.10;;;;;;;-6.01;76.31;95969.88;4995874;28;20088;-60
2023/11/25 02:02:38;;;;;;;26.13;12.10;;;;;;;-5.95;76.30;95978.56;5014333;28;20128;-59
2023/11/25 02:05:04;;;;;;;23.92;11.60;;;;;;;-5.97;75.68;95980.56;5012973;28;20038;-57
2023/11/25 02:07:30;;;;;;;25.27;12.82;;;;;;;-5.99;76.43;95977.41;5014017;28;20127;-58
2023/11/25 02:09:56;;;;;;;28.05;12.60;;;;;;;-5.96;76.20;95975.19;5013788;28;20491;-60
2023/11/25 02:12:22;;;;;;;24.75;13.38;;;;;;;-5.94;76.02;95975.00;5014022;28;20077;-60
2023/11/25 02:14:48;;;;;;;23.92;10.27;;;;;;;-5.90;76.21;95983.81;5013838;28;20507;-59
2023/11/25 02:17:14;;;;;;;21.40;11.13;;;;;;;-5.89;76.28;95974.28;5028945;28;20054;-59
2023/11/25 02:19:43;;;;;;;19.60;9.88;;;;;;;-5.99;76.16;95982.56;4996098;28;20041;-59
2023/11/25 02:22:10;;;;;;;19.85;11.10;;;;;;;-6.04;75.92;95977.28;5028863;28;20140;-59
2023/11/25 02:24:37;;;;;;;23.80;11.18;;;;;;;-5.97;75.79;95980.56;5013720;28;20096;-60
2023/11/25 02:27:04;;;;;;;21.38;11.38;;;;;;;-5.90;76.29;95977.88;5013257;28;20061;-60
2023/11/25 02:29:32;;;;;;;20.80;11.40;;;;;;;-5.77;77.26;95985.44;5012578;28;20046;-59
2023/11/25 02:32:03;;;;;;;18.85;10.93;;;;;;;-5.72;76.15;96004.44;5012626;28;20060;-59
2023/11/25 02:34:29;;;;;;;16.05;9.30;;;;;;;-5.72;75.12;96008.81;5012251;28;20138;-59
2023/11/25 02:36:57;;;;;;;20.52;9.45;;;;;;;-5.81;75.63;96004.97;5011563;28;20519;-60
2023/11/25 02:39:28;;;;;;;22.35;11.35;;;;;;;-5.84;74.79;96011.34;5009036;28;20077;-60
2023/11/25 02:41:54;;;;;;;24.00;11.82;;;;;;;-5.88;75.17;96006.81;4993978;28;20534;-59
2023/11/25 02:44:20;;;;;;;20.92;10.60;;;;;;;-5.90;75.58;96014.00;4992584;28;20038;-59
2023/11/25 02:46:50;;;;;;;19.70;10.52;;;;;;;-5.93;75.45;96013.41;5008266;28;20042;-59
2023/11/25 02:49:16;;;;;;;22.20;10.38;;;;;;;-5.92;75.95;96019.34;4994441;28;20050;-59
2023/11/25 02:51:49;;;;;;;17.75;9.88;;;;;;;-5.94;74.89;96026.56;5012041;28;20038;-58
2023/11/25 02:54:19;;;;;;;20.17;9.93;;;;;;;-5.99;75.65;96029.78;5013273;28;20037;-57
2023/11/25 02:56:46;;;;;;;20.80;10.43;;;;;;;-6.07;75.78;96039.59;4995699;28;20530;-57
2023/11/25 02:59:12;;;;;;;24.45;11.70;;;;;;;-6.07;75.17;96032.63;4994928;28;20307;-59
2023/11/25 03:01:47;;;;;;;17.52;9.80;;;;;;;-6.19;75.62;96029.97;5011937;28;20515;-59
2023/11/25 03:04:17;;;;;;;19.55;10.38;;;;;;;-6.14;75.74;96038.88;5011332;28;20541;-57
2023/11/25 03:06:48;;;;;;;24.02;10.98;;;;;;;-6.12;75.45;96035.06;4979452;28;20054;-57
2023/11/25 03:09:14;;;;;;;22.95;11.32;;;;;;;-6.13;75.55;96037.88;5011360;28;20049;-59
2023/11/25 03:11:40;;;;;;;23.42;11.27;;;;;;;-6.14;75.50;96036.31;5013251;28;20034;-59
2023/11/25 03:14:06;;;;;;;21.10;10.93;;;;;;;-6.07;75.67;96050.69;5011893;28;20095;-58
2023/11/25 03:16:33;;;;;;;18.15;10.27;;;;;;;-6.05;74.97;96048.69;5011477;28;20108;-60
2023/11/25 03:18:59;;;;;;;18.42;9.98;;;;;;;-6.06;75.25;96059.19;5012339;28;20136;-59
2023/11/25 03:21:25;;;;;;;17.50;9.57;;;;;;;-6.12;75.25;96063.41;5011908;28;20045;-59
2023/11/25 03:23:51;;;;;;;20.17;9.95;;;;;;;-6.06;75.38;96054.84;5013192;28;20107;-59
2023/11/25 03:26:17;;;;;;;18.60;9.35;;;;;;;-6.09;75.32;96057.06;5012643;28;20526;-60
2023/11/25 03:28:44;;;;;;;20.30;9.38;;;;;;;-6.16;75.22;96064.84;5011997;28;20450;-58
2023/11/25 03:31:12;;;;;;;16.20;8.88;;;;;;;-6.20;75.55;96067.06;5010700;28;20041;-60
2023/11/25 03:33:38;;;;;;;21.08;10.70;;;;;;;-6.15;75.12;96070.81;5012847;28;20049;-60
2023/11/25 03:36:04;;;;;;;21.80;10.27;;;;;;;-6.12;76.11;96060.84;5012578;28;20041;-60
2023/11/25 03:38:30;;;;;;;20.42;10.02;;;;;;;-6.13;74.71;96061.06;5010996;28;20046;-59
2023/11/25 03:40:57;;;;;;;15.68;8.75;;;;;;;-6.22;75.15;96069.06;5010325;28;20042;-61
2023/11/25 03:43:23;;;;;;;19.83;10.23;;;;;;;-6.25;75.03;96069.50;5012429;28;20045;-59
2023/11/25 03:45:50;;;;;;;19.73;9.77;;;;;;;-6.20;75.02;96077.38;5012119;28;20041;-59
2023/11/25 03:48:16;;;;;;;16.70;9.27;;;;;;;-6.34;74.67;96072.56;5027451;28;20153;-59
2023/11/25 03:50:43;;;;;;;24.00;10.52;;;;;;;-6.31;76.01;96079.88;5011662;28;20049;-60
2023/11/25 03:53:08;;;;;;;16.33;9.77;;;;;;;-6.29;75.05;96085.63;5012428;28;20399;-59
2023/11/25 03:55:34;;;;;;;18.02;9.85;;;;;;;-6.29;74.98;96091.56;4994663;28;20034;-59
2023/11/25 03:58:01;;;;;;;19.55;9.23;;;;;;;-6.28;75.78;96093.13;5011058;28;20046;-60
2023/11/25 04:00:27;;;;;;;13.93;8.05;;;;;;;-6.22;74.32;96112.91;5026837;28;20041;-59
2023/11/25 04:02:53;;;;;;;18.85;10.38;;;;;;;-6.26;74.77;96105.81;5011525;28;20184;-60
2023/11/25 04:05:22;;;;;;;22.90;10.05;;;;;;;-6.17;75.80;96114.84;5010824;28;20069;-60
2023/11/25 04:07:48;;;;;;;20.45;9.88;;;;;;;-6.14;75.00;96114.44;4994644;28;20103;-59
2023/11/25 04:10:15;;;;;;;17.88;8.77;;;;;;;-6.15;74.38;96120.56;5010519;28;20491;-61
2023/11/25 04:12:48;;;;;;;19.10;10.05;;;;;;;-6.16;74.64;96119.00;5011564;28;20100;-60
2023/11/25 04:15:16;;;;;;;13.20;7.60;;;;;;;-6.25;74.82;96121.06;5011947;28;20045;-59
2023/11/25 04:17:42;;;;;;;16.30;8.63;;;;;;;-6.20;75.04;96128.16;5027179;28;20057;-59
2023/11/25 04:20:13;;;;;;;20.63;9.95;;;;;;;-6.15;74.69;96132.66;5011595;28;20049;-61
2023/11/25 04:22:44;;;;;;;20.55;9.63;;;;;;;-6.21;74.72;96136.88;5009917;28;20092;-59
2023/11/25 04:25:11;;;;;;;24.75;11.35;;;;;;;-6.19;74.70;96143.41;4994493;28;20058;-59
2023/11/25 04:27:48;;;;;;;19.27;9.82;;;;;;;-6.30;74.61;96140.72;5011618;28;20054;-60
2023/11/25 04:30:16;;;;;;;23.88;10.75;;;;;;;-6.26;75.00;96152.22;5011821;28;20060;-59
2023/11/25 04:32:43;;;;;;;20.52;10.27;;;;;;;-6.36;75.13;96162.97;5011149;28;20046;-59
2023/11/25 04:35:09;;;;;;;19.60;9.23;;;;;;;-6.35;74.85;96150.88;5011296;28;20050;-60
2023/11/25 04:37:37;;;;;;;17.92;8.15;;;;;;;-6.41;74.15;96162.81;5026053;28;20053;-60
2023/11/25 04:40:11;;;;;;;17.67;9.15;;;;;;;-6.47;74.73;96166.22;4991259;28;20050;-59
2023/11/25 04:42:38;;;;;;;16.52;8.80;;;;;;;-6.44;74.92;96169.19;5006693;28;20045;-59
2023/11/25 04:45:04;;;;;;;17.75;8.77;;;;;;;-6.47;74.79;96186.81;5002255;28;20046;-59
2023/11/25 04:47:31;;;;;;;22.55;9.23;;;;;;;-6.56;74.22;96182.91;5009824;28;20112;-59
2023/11/25 04:49:57;;;;;;;18.85;8.43;;;;;;;-6.48;74.01;96187.84;5011109;28;20038;-61
2023/11/25 04:52:22;;;;;;;20.85;9.05;;;;;;;-6.53;74.12;96185.91;5010440;28;20389;-58
2023/11/25 04:54:48;;;;;;;19.45;9.05;;;;;;;-6.59;74.46;96196.22;5011332;28;20508;-61
2023/11/25 04:57:14;;;;;;;16.85;8.93;;;;;;;-6.54;74.19;96196.41;5011265;28;20038;-58
2023/11/25 04:59:40;;;;;;;20.05;9.73;;;;;;;-6.56;73.85;96206.09;5010460;28;20041;-60
2023/11/25 05:02:06;;;;;;;16.52;9.07;;;;;;;-6.62;73.96;96192.28;5011548;28;20057;-60
2023/11/25 05:04:32;;;;;;;17.83;9.30;;;;;;;-6.61;73.71;96199.03;5011516;28;20042;-58
2023/11/25 05:06:58;;;;;;;19.15;8.75;;;;;;;-6.65;74.00;96214.09;5010168;28;20045;-58
2023/11/25 05:09:26;;;;;;;13.05;7.13;;;;;;;-6.65;73.99;96221.84;5026681;28;20052;-60
2023/11/25 05:11:53;;;;;;;16.05;8.00;;;;;;;-6.70;74.54;96208.00;5011294;28;20505;-59
2023/11/25 05:14:19;;;;;;;18.10;9.15;;;;;;;-6.64;73.69;96227.78;5011169;28;20141;-59
2023/11/25 05:16:46;;;;;;;13.57;7.38;;;;;;;-6.61;73.78;96232.50;4993612;28;20427;-60
2023/11/25 05:19:13;;;;;;;17.42;8.68;;;;;;;-6.58;74.50;96239.03;5010244;28;20042;-59
2023/11/25 05:21:38;;;;;;;18.73;9.57;;;;;;;-6.52;73.92;96233.06;5010288;28;20053;-58
2023/11/25 05:24:04;;;;;;;16.67;9.35;;;;;;;-6.60;73.45;96243.59;5010219;28;20052;-59
2023/11/25 05:26:30;;;;;;;18.20;8.23;;;;;;;-6.68;74.26;96240.25;5011208;28;20053;-60
2023/11/25 05:28:56;;;;;;;17.73;8.32;;;;;;;-6.74;73.99;96248.81;5008929;28;20565;-61
2023/11/25 05:31:22;;;;;;;21.10;9.65;;;;;;;-6.72;74.63;96259.69;5008780;28;20037;-60
2023/11/25 05:33:49;;;;;;;14.07;7.32;;;;;;;-6.82;74.51;96264.50;5008500;28;20147;-60
2023/11/25 05:36:14;;;;;;;17.30;8.45;;;;;;;-6.63;74.03;96276.50;5008652;28;20240;-60
2023/11/25 05:38:40;;;;;;;18.23;8.90;;;;;;;-6.63;73.27;96276.50;5008397;28;20073;-59
2023/11/25 05:41:08;;;;;;;22.42;9.80;;;;;;;-6.55;73.10;96282.44;5020303;28;20037;-60
2023/11/25 05:43:34;;;;;;;19.48;9.63;;;;;;;-6.68;73.56;96286.63;5007793;28;20046;-60
2023/11/25 05:46:00;;;;;;;18.33;9.13;;;;;;;-6.60;73.34;96292.56;5010055;28;20196;-62
2023/11/25 05:48:27;;;;;;;24.17;8.73;;;;;;;-6.56;73.36;96293.72;5010728;28;20057;-60
2023/11/25 05:50:53;;;;;;;18.13;9.45;;;;;;;-6.67;73.11;96295.16;5025554;28;20045;-61
2023/11/25 05:53:18;;;;;;;20.60;9.23;;;;;;;-6.61;73.56;96288.41;5012227;28;20041;-60
2023/11/25 05:55:44;;;;;;;16.70;9.48;;;;;;;-6.57;73.57;96294.72;5012745;28;20430;-60
2023/11/25 05:58:10;;;;;;;19.30;8.82;;;;;;;-6.63;72.95;96294.53;5014434;28;20050;-59
2023/11/25 06:00:35;;;;;;;21.17;9.40;;;;;;;-6.57;72.94;96307.59;5013197;28;20434;-61
2023/11/25 06:03:01;;;;;;;19.38;8.00;;;;;;;-6.59;72.58;96320.69;5012630;28;20054;-60
2023/11/25 06:05:30;;;;;;;18.65;9.23;;;;;;;-6.48;72.61;96314.88;5013592;28;20538;-60
2023/11/25 06:07:55;;;;;;;18.33;8.07;;;;;;;-6.59;71.47;96322.47;5013986;28;20500;-60
2023/11/25 06:10:22;;;;;;;17.30;7.78;;;;;;;-6.54;72.23;96320.06;5028682;28;20041;-60
2023/11/25 06:12:49;;;;;;;21.83;10.10;;;;;;;-6.53;72.38;96324.22;5028930;28;20077;-60
2023/11/25 06:15:15;;;;;;;19.30;9.73;;;;;;;-6.43;72.86;96327.16;5012569;28;20474;-59
2023/11/25 06:17:44;;;;;;;18.65;8.98;;;;;;;-6.47;72.26;96333.72;5014257;28;20052;-61
2023/11/25 06:20:10;;;;;;;18.00;8.15;;;;;;;-6.36;72.38;96340.81;5012797;28;20038;-60
2023/11/25 06:22:37;;;;;;;20.67;9.25;;;;;;;-6.27;71.50;96339.56;5013746;28;20049;-60
2023/11/25 06:25:05;;;;;;;17.60;9.25;;;;;;;-6.26;71.34;96345.56;5012823;28;20526;-61
2023/11/25 06:27:30;;;;;;;16.58;7.45;;;;;;;-6.24;71.39;96346.13;5013878;28;20050;-59
2023/11/25 06:29:58;;;;;;;22.08;10.23;;;;;;;-6.31;71.77;96347.94;5013274;28;20030;-60
2023/11/25 06:32:27;;;;;;;17.13;9.05;;;;;;;-6.15;71.59;96367.28;5012463;28;20136;-59
2023/11/25 06:34:53;;;;;;;21.35;9.48;;;;;;;-6.17;70.87;96372.69;5012044;28;20053;-61
2023/11/25 06:37:18;;;;;;;22.75;10.68;;;;;;;-5.98;71.79;96376.13;5013721;28;20416;-60
2023/11/25 06:39:44;;;;;;;22.92;9.85;;;;;;;-5.90;70.91;96382.84;5013041;28;20036;-62
2023/11/25 06:42:10;;;;;;;20.83;9.13;;;;;;;-5.91;70.52;96384.63;5013024;28;20108;-60
2023/11/25 06:44:36;;;;;;;22.77;9.60;;;;;;;-6.00;70.74;96393.59;5012146;28;20053;-60
2023/11/25 06:47:02;;;;;;;16.20;8.63;;;;;;;-5.96;71.07;96389.63;5012856;28;20046;-60
2023/11/25 06:49:28;;;;;;;16.08;9.43;;;;;;;-5.99;72.05;96398.56;5013193;28;20058;-60
2023/11/25 06:51:54;;;;;;;21.75;9.57;;;;;;;-5.96;70.14;96413.63;5028149;28;20048;-59
2023/11/25 06:54:20;;;;;;;20.15;9.95;;;;;;;-5.97;69.89;96417.22;5013041;28;20058;-58
2023/11/25 06:56:45;;;;;;;20.02;9.82;;;;;;;-5.82;70.78;96419.50;5012728;28;20062;-59
2023/11/25 06:59:11;;;;;;;19.42;10.38;;;;;;;-5.65;69.84;96426.75;5011304;28;20037;-60
2023/11/25 07:01:37;;;;;;;20.98;9.95;;;;;;;-5.58;69.72;96427.50;5009899;28;20046;-61
2023/11/25 07:04:05;;;;;;;22.77;8.95;;;;;;;-5.59;69.30;96442.22;5010443;28;20050;-61
2023/11/25 07:06:31;;;;;;;21.85;9.68;;;;;;;-5.52;69.29;96447.31;5013294;28;20149;-60
2023/11/25 07:09:00;;;;;;;22.50;10.98;;;;;;;-5.41;69.01;96444.09;5013291;28;20531;-58
2023/11/25 07:11:33;;;;;;;23.13;10.38;;;;;;;-5.34;68.27;96450.00;5012379;28;20474;-59
2023/11/25 07:13:58;;;;;;;16.90;8.52;;;;;;;-5.30;67.49;96458.88;5013258;28;20108;-59
2023/11/25 07:16:24;;;;;;;20.13;9.57;;;;;;;-5.25;67.88;96453.91;5011870;28;20038;-60
2023/11/25 07:18:50;;;;;;;21.85;9.50;;;;;;;-5.33;67.29;96464.47;5010235;28;20152;-56
2023/11/25 07:21:16;;;;;;;22.83;10.68;;;;;;;-5.16;69.08;96467.34;5011312;28;20129;-58
2023/11/25 07:23:42;;;;;;;21.30;10.15;;;;;;;-5.05;66.61;96478.81;5010904;28;20525;-59
2023/11/25 07:26:12;;;;;;;22.00;10.00;;;;;;;-5.14;67.22;96491.19;5011762;28;20483;-58
2023/11/25 07:28:38;;;;;;;17.90;9.43;;;;;;;-5.04;66.77;96488.13;5012614;28;20077;-59
2023/11/25 07:31:04;;;;;;;17.52;9.48;;;;;;;-5.08;67.33;96492.16;5012850;28;20556;-58
2023/11/25 07:33:31;;;;;;;16.60;9.25;;;;;;;-4.99;67.70;96493.47;5012329;28;20046;-58
2023/11/25 07:35:57;;;;;;;19.95;10.18;;;;;;;-5.09;67.48;96493.94;5012162;28;20507;-61
2023/11/25 07:38:23;;;;;;;21.23;11.32;;;;;;;-4.96;68.26;96507.75;5011341;28;20052;-61
2023/11/25 07:40:49;;;;;;;22.95;11.35;;;;;;;-4.85;68.21;96518.22;5011564;28;20049;-60
2023/11/25 07:43:16;;;;;;;19.33;9.57;;;;;;;-5.04;68.34;96527.66;5027250;28;20050;-58
2023/11/25 07:45:43;;;;;;;21.77;10.52;;;;;;;-5.00;68.69;96533.19;5011981;28;20100;-60
2023/11/25 07:48:11;;;;;;;19.25;10.50;;;;;;;-4.99;67.77;96544.34;5012002;28;20108;-61
2023/11/25 07:50:42;;;;;;;24.00;11.07;;;;;;;-4.99;68.70;96549.53;5010981;28;20040;-61
2023/11/25 07:53:10;;;;;;;24.83;12.10;;;;;;;-5.05;68.33;96551.13;5011975;28;20378;-60
2023/11/25 07:55:36;;;;;;;22.05;11.70;;;;;;;-5.07;68.25;96564.25;5006288;28;20384;-57
2023/11/25 07:58:01;;;;;;;19.27;10.82;;;;;;;-5.12;68.27;96560.69;5012096;28;20553;-61
2023/11/25 08:00:27;;;;;;;23.17;11.50;;;;;;;-5.11;69.10;96572.63;5026513;28;20046;-62
2023/11/25 08:02:55;;;;;;;21.95;11.90;;;;;;;-5.13;68.90;96583.16;5011991;28;20048;-61
2023/11/25 08:05:25;;;;;;;21.65;11.55;;;;;;;-5.07;69.87;96587.50;4978193;28;20034;-60
2023/11/25 08:07:52;;;;;;;23.52;12.00;;;;;;;-5.05;69.24;96595.84;5011018;28;20073;-61
2023/11/25 08:10:19;;;;;;;21.80;11.50;;;;;;;-4.81;68.54;96603.84;5010822;28;20029;-59
2023/11/25 08:12:45;;;;;;;22.88;11.10;;;;;;;-4.60;68.20;96608.69;5011001;28;20046;-59
2023/11/25 08:15:13;;;;;;;23.70;11.50;;;;;;;-4.42;68.44;96615.72;5010682;28;20050;-58
2023/11/25 08:17:41;;;;;;;22.70;12.18;;;;;;;-4.29;68.09;96608.88;5010438;28;20054;-60
2023/11/25 08:20:09;;;;;;;21.08;10.50;;;;;;;-4.36;68.47;96619.25;4993693;28;20041;-58
2023/11/25 08:22:38;;;;;;;26.15;14.00;;;;;;;-4.28;66.32;96623.41;5011701;28;20045;-60
2023/11/25 08:25:07;;;;;;;26.55;13.85;;;;;;;-4.14;67.38;96628.25;5010474;28;20060;-60
2023/11/25 08:27:36;;;;;;;25.92;11.75;;;;;;;-4.13;66.57;96619.47;5009792;28;20558;-59
2023/11/25 08:30:08;;;;;;;25.70;12.10;;;;;;;-4.00;66.13;96636.72;5011501;28;20049;-57
2023/11/25 08:32:41;;;;;;;23.60;10.10;;;;;;;-4.14;66.19;96627.47;4994350;28;20061;-58
2023/11/25 08:35:08;;;;;;;21.08;11.20;;;;;;;-4.02;65.32;96636.13;5009682;28;20092;-56
2023/11/25 08:37:35;;;;;;;23.40;11.95;;;;;;;-3.96;65.02;96645.63;5011127;28;20045;-59
2023/11/25 08:40:03;;;;;;;20.88;10.95;;;;;;;-3.99;64.79;96647.84;5011025;28;20049;-59
2023/11/25 08:42:30;;;;;;;23.35;11.55;;;;;;;-3.76;64.39;96661.00;5011141;28;20547;-58
2023/11/25 08:44:56;;;;;;;22.80;11.13;;;;;;;-3.60;65.34;96666.63;5010887;28;20452;-55
2023/11/25 08:47:22;;;;;;;20.17;11.02;;;;;;;-3.40;63.93;96661.25;5011107;28;20380;-58
2023/11/25 08:49:48;;;;;;;20.83;11.18;;;;;;;-3.30;64.04;96669.31;5026457;28;20045;-58
2023/11/25 08:52:15;;;;;;;20.55;11.43;;;;;;;-3.31;62.91;96649.59;5009507;28;20121;-63
2023/11/25 08:54:40;;;;;;;23.10;11.50;;;;;;;-3.15;64.28;96668.94;5009940;28;20547;-56
2023/11/25 08:57:10;;;;;;;20.25;11.13;;;;;;;-3.10;62.05;96671.69;5011728;28;20077;-57
2023/11/25 08:59:38;;;;;;;21.48;11.00;;;;;;;-3.18;62.35;96672.75;5010843;28;20041;-62
2023/11/25 09:02:08;;;;;;;24.63;11.55;;;;;;;-2.98;63.28;96672.53;4992680;28;20105;-58
2023/11/25 09:04:36;;;;;;;22.27;11.23;;;;;;;-2.92;62.26;96687.22;5010621;28;20139;-55
2023/11/25 09:07:02;;;;;;;25.13;12.88;;;;;;;-3.10;63.12;96685.41;5011151;28;20507;-57
2023/11/25 09:09:28;;;;;;;23.33;13.43;;;;;;;-3.21;62.30;96697.31;5009392;28;20117;-58
2023/11/25 09:11:54;;;;;;;23.70;12.70;;;;;;;-3.08;61.91;96691.19;5010516;28;20034;-57
2023/11/25 09:14:20;;;;;;;21.77;12.18;;;;;;;-2.91;63.02;96696.59;5009928;28;20040;-57
2023/11/25 09:16:46;;;;;;;21.67;10.68;;;;;;;-2.89;61.13;96710.09;5011354;28;20042;-55
2023/11/25 09:19:13;;;;;;;23.42;11.45;;;;;;;-2.77;62.20;96723.13;5010694;28;20049;-58
2023/11/25 09:21:39;;;;;;;24.73;12.10;;;;;;;-2.72;62.78;96720.69;5010989;28;20471;-58
2023/11/25 09:24:05;;;;;;;21.25;11.02;;;;;;;-2.75;61.58;96732.28;5010407;28;20044;-59
2023/11/25 09:26:31;;;;;;;26.33;12.35;;;;;;;-2.71;62.57;96731.84;4993584;28;20061;-57
2023/11/25 09:28:56;;;;;;;28.20;13.10;;;;;;;-2.66;63.56;96732.00;5014773;28;20041;-57
2023/11/25 09:31:25;;;;;;;26.05;13.68;;;;;;;-2.78;63.33;96726.75;5014749;28;20391;-59
2023/11/25 09:33:51;;;;;;;30.67;14.70;;;;;;;-2.77;62.52;96733.50;5013605;28;20521;-59
2023/11/25 09:36:18;;;;;;;29.30;13.35;;;;;;;-2.92;61.23;96751.22;5013229;28;20069;-59
2023/11/25 09:38:43;;;;;;;23.55;12.15;;;;;;;-2.95;62.22;96762.03;5014034;28;20124;-58
2023/11/25 09:41:10;;;;;;;25.25;12.68;;;;;;;-2.91;63.26;96765.75;5038781;28;20455;-58
2023/11/25 09:43:36;;;;;;;27.77;12.75;;;;;;;-2.73;62.01;96776.16;5026927;28;20038;-55
2023/11/25 09:46:02;;;;;;;30.10;13.38;;;;;;;-2.79;62.70;96787.41;5012219;28;20068;-59
2023/11/25 09:48:28;;;;;;;25.27;13.65;;;;;;;-2.73;63.04;96785.75;5014113;28;20116;-57
2023/11/25 09:50:54;;;;;;;26.67;13.38;;;;;;;-2.68;62.53;96797.03;5014186;28;20048;-59
2023/11/25 09:53:28;;;;;;;26.77;12.90;;;;;;;-2.71;61.38;96796.66;5014827;28;20454;-57
2023/11/25 09:56:03;;;;;;;27.42;13.52;;;;;;;-2.87;61.76;96805.81;5016122;28;20474;-57
2023/11/25 09:58:32;;;;;;;24.80;13.30;;;;;;;-2.78;63.56;96802.72;5032909;28;20041;-57
2023/11/25 10:00:59;;;;;;;26.77;13.45;;;;;;;-2.79;62.93;96821.88;5033128;28;20042;-56
2023/11/25 10:03:32;;;;;;;30.75;13.15;;;;;;;-2.72;64.16;96815.84;5034342;28;20053;-59
2023/11/25 10:05:58;;;;;;;26.13;13.70;;;;;;;-2.58;64.02;96817.28;5028198;28;20511;-56
2023/11/25 10:08:24;;;;;;;29.10;13.65;;;;;;;-2.48;63.88;96825.34;4996614;28;20136;-57
2023/11/25 10:11:07;;;;;;;27.58;13.50;;;;;;;-2.49;64.12;96828.97;5014107;28;20046;-59
2023/11/25 10:13:35;;;;;;;22.73;12.57;;;;;;;-2.51;64.30;96838.75;5014393;28;20373;-56
2023/11/25 10:16:02;;;;;;;32.30;13.82;;;;;;;-2.44;63.39;96830.88;5029595;28;20038;-58
2023/11/25 10:18:29;;;;;;;27.88;14.60;;;;;;;-2.39;63.14;96837.00;4977006;28;20069;-56
2023/11/25 10:20:58;;;;;;;31.65;14.90;;;;;;;-2.46;63.66;96832.91;4960896;28;20034;-56
2023/11/25 10:23:24;;;;;;;25.05;13.55;;;;;;;-2.52;64.06;96839.75;4994582;28;20046;-57
2023/11/25 10:25:51;;;;;;;26.13;13.60;;;;;;;-2.58;64.81;96856.97;5000020;28;20073;-59
2023/11/25 10:28:24;;;;;;;26.85;14.65;;;;;;;-2.49;65.29;96854.91;5014025;28;20061;-59
2023/11/25 10:30:54;;;;;;;26.45;14.25;;;;;;;-2.58;64.69;96867.34;5012929;28;20091;-58
2023/11/25 10:33:22;;;;;;;28.20;15.02;;;;;;;-2.59;65.70;96867.56;4980241;28;20042;-61
2023/11/25 10:35:48;;;;;;;33.03;14.40;;;;;;;-2.52;64.80;96878.66;4996085;28;20069;-62
2023/11/25 10:38:21;;;;;;;25.73;13.48;;;;;;;-2.57;64.22;96881.09;5012666;28;20038;-60
2023/11/25 10:40:50;;;;;;;24.85;13.52;;;;;;;-2.63;64.40;96880.16;5028908;28;20388;-61
2023/11/25 10:43:18;;;;;;;28.65;13.30;;;;;;;-2.63;64.84;96884.56;5012510;28;20077;-60
2023/11/25 10:45:44;;;;;;;26.88;14.40;;;;;;;-2.65;65.10;96894.34;5013791;28;20056;-59
2023/11/25 10:48:11;;;;;;;34.28;16.35;;;;;;;-2.67;65.73;96899.75;5012887;28;20054;-58
2023/11/25 10:50:39;;;;;;;29.88;15.43;;;;;;;-2.76;65.75;96908.81;5028079;28;20507;-56
2023/11/25 10:53:05;;;;;;;30.10;15.75;;;;;;;-2.67;66.74;96906.75;5011667;28;20096;-60
2023/11/25 10:55:32;;;;;;;26.95;14.65;;;;;;;-2.64;65.87;96912.31;4979056;28;20034;-61
2023/11/25 10:58:00;;;;;;;29.13;13.90;;;;;;;-2.56;66.91;96924.19;4995891;28;20191;-57
2023/11/25 11:00:30;;;;;;;29.83;13.55;;;;;;;-2.48;65.65;96931.69;5011955;28;20069;-57
2023/11/25 11:02:57;;;;;;;29.17;14.30;;;;;;;-2.42;65.85;96938.63;5012945;28;20381;-62
2023/11/25 11:05:32;;;;;;;23.98;13.35;;;;;;;-2.44;64.84;96930.28;5013002;28;20046;-57
2023/11/25 11:08:07;;;;;;;27.23;14.70;;;;;;;-2.44;63.84;96937.25;4995573;28;20052;-57
2023/11/25 11:10:45;;;;;;;27.52;14.13;;;;;;;-2.54;65.09;96941.13;5011926;28;20045;-56
2023/11/25 11:13:12;;;;;;;30.17;14.85;;;;;;;-2.62;65.12;96951.78;5011696;28;20046;-57
2023/11/25 11:15:38;;;;;;;30.02;14.60;;;;;;;-2.61;65.22;96952.59;4995048;28;20042;-59
2023/11/25 11:18:30;;;;;;;35.70;16.83;;;;;;;-2.73;64.80;96957.66;5011340;28;20042;-58